TPH Airport (Tonopah) Information

FAA: TPH - ICAO: KTPH

TPH Airport Location

State Nevada
County Nye
City Tonopah
TPH Airport is 7 miles east of Tonopah, NV.
Latitude 38-03-36.7000N
Longitude 117-05-12.5000W
Elevation 5,429ft

KTPH Airport METARs

METAR KTPH 060656Z AUTO 01010KT 10SM CLR 03/M09 A3028 RMK AO2 SLP233 T00331089
Altimeter 30.28"
Temperature 3.3°C (37.9°F)
Wind 10° at 10KT
Clouds Skies are clear.
Visibility 10.0mi
Time observed: 2021-12-06T06:56:00Z

TPH Airport Details

Status Operational
Activation September 1944
Ownership Public
Usage Public
Chart LAS VEGAS
ATC on-site No
Beacon schedule sunset-sunrise
Beacon color clear green

TPH Airport Contacts

Owner NYE COUNTY
Owner address P O BOX 1031, TONOPAH, NV 89049
Owner phone (775) 209-4174
Manager CHARLES H COLEMAN
Manager address BOX 1397, ROUND MOUNTAIN, NV 89045
Manager phone 702-377-2044

TPH Airport (Tonopah) Radio Frequencies

TPH (Airport) Radio Frequencies

UNICOM 123
Common traffic advisory frequency (CTAF) 123